Time;durP1;ratioP1;P1;durP2;ratioP2;P2;SDS_P1;SDS_P2;PMS_P1;PMS_P2;Temp;Humidity;BMP_temperature;BMP_pressure;BME280_temperature;BME280_humidity;BME280_pressure;Samples;Min_cycle;Max_cycle;Signal;HPM_P1;HPM_P2
2022/11/26 00:00:48;;;;;;;16.67;8.18;;;5.70;99.90;;;;;;4993137;28;20046;-58
2022/11/26 00:03:14;;;;;;;20.38;8.63;;;5.60;99.90;;;;;;4974474;28;20100;-59
2022/11/26 00:05:42;;;;;;;20.70;8.70;;;5.60;99.90;;;;;;4991728;28;20042;-58
2022/11/26 00:08:21;;;;;;;19.73;9.00;;;5.60;99.90;;;;;;5013674;28;20070;-58
2022/11/26 00:10:52;;;;;;;20.85;9.27;;;5.60;99.90;;;;;;4996208;28;20133;-60
2022/11/26 00:13:21;;;;;;;22.08;9.75;;;5.60;99.90;;;;;;4982403;28;20455;-59
2022/11/26 00:15:50;;;;;;;22.88;9.73;;;5.60;99.90;;;;;;5013434;28;20045;-58
2022/11/26 00:18:16;;;;;;;12.98;7.40;;;5.60;99.90;;;;;;5013588;28;20450;-59
2022/11/26 00:20:43;;;;;;;19.08;8.77;;;5.50;99.90;;;;;;5013314;28;20064;-60
2022/11/26 00:23:21;;;;;;;16.48;7.35;;;5.50;99.90;;;;;;5013271;28;20117;-58
2022/11/26 00:25:53;;;;;;;20.27;9.23;;;5.40;99.90;;;;;;5012212;28;20465;-58
2022/11/26 00:28:30;;;;;;;21.35;8.98;;;5.50;99.90;;;;;;5013902;28;20049;-57
2022/11/26 00:30:58;;;;;;;19.30;8.20;;;5.50;99.90;;;;;;5007482;28;20394;-59
2022/11/26 00:33:25;;;;;;;23.33;9.80;;;5.50;99.90;;;;;;5005432;28;20045;-58
2022/11/26 00:36:17;;;;;;;20.30;9.35;;;5.40;99.90;;;;;;5013257;28;20038;-58
2022/11/26 00:38:46;;;;;;;19.13;7.40;;;5.40;99.90;;;;;;5002442;28;20049;-58
2022/11/26 00:41:24;;;;;;;20.80;9.00;;;5.40;99.90;;;;;;4999562;28;20048;-58
2022/11/26 00:43:50;;;;;;;17.95;8.05;;;5.30;99.90;;;;;;4982441;28;20087;-58
2022/11/26 00:46:18;;;;;;;22.92;9.10;;;5.30;99.90;;;;;;5012883;28;20073;-58
2022/11/26 00:48:45;;;;;;;19.77;9.02;;;5.30;99.90;;;;;;5012304;28;20042;-58
2022/11/26 00:51:26;;;;;;;19.58;8.57;;;5.30;99.90;;;;;;4978166;28;20078;-59
2022/11/26 00:53:58;;;;;;;18.67;8.57;;;5.30;99.90;;;;;;4988114;28;20052;-58
2022/11/26 00:56:24;;;;;;;14.82;6.35;;;5.30;99.90;;;;;;4994966;28;20038;-59
2022/11/26 00:58:50;;;;;;;23.70;8.43;;;5.30;99.90;;;;;;5012456;28;20042;-59
2022/11/26 01:01:22;;;;;;;20.98;8.88;;;5.30;99.90;;;;;;5012217;28;20034;-58
2022/11/26 01:03:48;;;;;;;16.92;7.95;;;5.30;99.90;;;;;;4981658;28;20061;-58
2022/11/26 01:06:21;;;;;;;20.40;8.88;;;5.20;99.90;;;;;;5011842;28;20592;-57
2022/11/26 01:08:47;;;;;;;16.48;6.78;;;5.30;99.90;;;;;;5012209;28;20064;-60
2022/11/26 01:11:18;;;;;;;20.42;7.93;;;5.30;99.90;;;;;;4994528;28;20061;-58
2022/11/26 01:13:45;;;;;;;26.13;7.65;;;5.30;99.90;;;;;;5012538;28;20131;-59
2022/11/26 01:16:26;;;;;;;17.92;8.18;;;5.20;99.90;;;;;;5012373;28;20100;-58
2022/11/26 01:18:54;;;;;;;22.65;8.45;;;5.20;99.90;;;;;;5008343;28;20027;-58
2022/11/26 01:21:21;;;;;;;21.52;9.18;;;5.20;99.90;;;;;;5003287;28;20473;-58
2022/11/26 01:23:47;;;;;;;22.52;8.55;;;5.20;99.90;;;;;;5012105;28;20069;-59
2022/11/26 01:26:16;;;;;;;21.88;8.85;;;5.20;99.90;;;;;;5012097;28;20074;-59
2022/11/26 01:28:42;;;;;;;18.77;8.80;;;5.20;99.90;;;;;;5012355;28;20084;-57
2022/11/26 01:31:25;;;;;;;15.80;6.90;;;5.20;99.90;;;;;;5012056;28;20042;-60
2022/11/26 01:33:52;;;;;;;18.23;7.32;;;5.20;99.90;;;;;;5008702;28;20125;-60
2022/11/26 01:36:35;;;;;;;22.13;8.68;;;5.20;99.90;;;;;;5014042;28;20042;-59
2022/11/26 01:39:16;;;;;;;20.90;8.10;;;5.30;99.90;;;;;;5018399;28;20361;-59
2022/11/26 01:42:06;;;;;;;20.92;8.57;;;5.20;99.90;;;;;;5018418;28;20043;-58
2022/11/26 01:44:34;;;;;;;18.25;6.25;;;5.20;99.90;;;;;;5018534;28;20042;-59
2022/11/26 01:47:01;;;;;;;22.00;8.65;;;5.20;99.90;;;;;;5018424;28;20410;-60
2022/11/26 01:49:37;;;;;;;21.10;9.05;;;5.20;99.90;;;;;;5018720;28;20037;-60
2022/11/26 01:52:22;;;;;;;26.05;9.13;;;5.20;99.90;;;;;;5000458;28;20054;-59
2022/11/26 01:54:48;;;;;;;;;;;5.20;99.90;;;;;;5018848;28;20050;-61
2022/11/26 01:57:21;;;;;;;20.67;8.23;;;5.20;99.90;;;;;;5018732;28;19932;-60
2022/11/26 01:59:53;;;;;;;16.05;6.35;;;5.10;99.90;;;;;;5018537;28;20050;-61
2022/11/26 02:02:23;;;;;;;20.75;8.38;;;5.10;99.90;;;;;;5018623;28;20046;-59
2022/11/26 02:05:06;;;;;;;18.52;7.30;;;5.20;99.90;;;;;;5018126;28;20097;-61
2022/11/26 02:07:33;;;;;;;17.75;8.75;;;5.10;99.90;;;;;;5018528;28;20080;-60
2022/11/26 02:09:59;;;;;;;27.42;9.35;;;5.10;99.90;;;;;;5018165;28;20057;-60
2022/11/26 02:12:25;;;;;;;19.45;8.07;;;5.20;99.90;;;;;;5018635;28;20038;-62
2022/11/26 02:14:51;;;;;;;19.13;6.88;;;5.20;99.90;;;;;;5018644;28;20033;-61
2022/11/26 02:17:36;;;;;;;20.25;9.07;;;5.10;99.90;;;;;;4995943;28;20045;-61
2022/11/26 02:20:23;;;;;;;23.15;9.23;;;5.10;99.90;;;;;;4999119;28;20117;-63
2022/11/26 02:22:49;;;;;;;20.83;8.60;;;5.10;99.90;;;;;;5007874;28;20049;-61
2022/11/26 02:25:42;;;;;;;25.13;8.55;;;5.10;99.90;;;;;;5013011;28;20053;-59
2022/11/26 02:28:26;;;;;;;21.17;9.27;;;5.10;99.90;;;;;;5009376;28;20056;-60
2022/11/26 02:31:04;;;;;;;17.20;7.88;;;5.20;99.90;;;;;;4982005;28;20088;-58
2022/11/26 02:33:39;;;;;;;18.88;9.05;;;5.20;99.90;;;;;;5011084;28;20034;-58
2022/11/26 02:36:25;;;;;;;16.05;7.05;;;5.20;99.90;;;;;;5018454;28;20041;-58
2022/11/26 02:38:51;;;;;;;20.35;6.57;;;5.20;99.90;;;;;;4986070;28;20601;-60
2022/11/26 02:41:17;;;;;;;19.42;8.30;;;5.20;99.90;;;;;;5001242;28;20058;-60
2022/11/26 02:43:43;;;;;;;24.40;8.98;;;5.20;99.90;;;;;;5017845;28;20046;-59
2022/11/26 02:46:14;;;;;;;21.92;8.52;;;5.20;99.90;;;;;;4996443;28;20109;-59
2022/11/26 02:48:44;;;;;;;17.42;6.47;;;5.30;99.90;;;;;;4978092;28;20494;-58
2022/11/26 02:51:38;;;;;;;27.75;8.93;;;5.20;99.90;;;;;;4979548;28;20165;-60
2022/11/26 02:54:06;;;;;;;20.10;8.80;;;5.20;99.90;;;;;;5015417;28;20064;-59
2022/11/26 02:56:33;;;;;;;23.98;6.75;;;5.20;99.90;;;;;;5015233;28;20097;-59
2022/11/26 02:58:59;;;;;;;16.08;7.90;;;5.20;99.90;;;;;;4985438;28;20066;-60
2022/11/26 03:01:38;;;;;;;22.65;8.30;;;5.20;99.90;;;;;;5013740;28;20106;-60
2022/11/26 03:04:14;;;;;;;18.42;6.78;;;5.20;99.90;;;;;;4997437;28;20053;-60
2022/11/26 03:06:40;;;;;;;17.20;8.20;;;5.30;99.90;;;;;;5011009;28;20091;-59
2022/11/26 03:09:06;;;;;;;16.98;6.20;;;5.20;99.90;;;;;;5015204;28;20038;-60
2022/11/26 03:11:32;;;;;;;19.77;8.13;;;5.20;99.90;;;;;;4997118;28;20038;-62
2022/11/26 03:13:57;;;;;;;21.13;8.68;;;5.10;99.90;;;;;;5001786;28;20041;-59
2022/11/26 03:16:29;;;;;;;23.00;8.75;;;5.10;99.90;;;;;;4985743;28;20030;-61
2022/11/26 03:18:54;;;;;;;21.38;8.35;;;5.20;99.90;;;;;;4995821;28;20082;-58
2022/11/26 03:21:20;;;;;;;21.58;7.50;;;5.20;99.90;;;;;;4995342;28;20074;-59
2022/11/26 03:23:46;;;;;;;14.68;7.32;;;5.10;99.90;;;;;;5012048;28;20103;-60
2022/11/26 03:26:11;;;;;;;17.95;6.50;;;5.20;99.90;;;;;;5014938;28;20099;-59
2022/11/26 03:28:37;;;;;;;17.42;7.78;;;5.10;99.90;;;;;;5014745;28;20038;-59
2022/11/26 03:31:03;;;;;;;24.58;8.25;;;5.10;99.90;;;;;;4997448;28;20041;-59
2022/11/26 03:33:28;;;;;;;19.00;7.95;;;5.10;99.90;;;;;;4994088;28;20034;-60
2022/11/26 03:35:54;;;;;;;16.83;6.00;;;5.10;99.90;;;;;;5008735;28;20433;-60
2022/11/26 03:38:20;;;;;;;21.45;8.07;;;5.10;99.90;;;;;;4994790;28;20407;-60
2022/11/26 03:40:55;;;;;;;12.63;6.25;;;5.00;99.90;;;;;;4977455;28;20045;-59
2022/11/26 03:43:20;;;;;;;15.80;7.72;;;5.10;99.90;;;;;;5014532;28;20042;-60
2022/11/26 03:45:46;;;;;;;19.05;7.88;;;5.00;99.90;;;;;;4995239;28;20053;-61
2022/11/26 03:48:11;;;;;;;16.23;7.60;;;5.00;99.90;;;;;;5014060;28;20414;-61
2022/11/26 03:50:37;;;;;;;21.65;8.27;;;5.00;99.90;;;;;;5013823;28;20151;-59
2022/11/26 03:53:02;;;;;;;19.13;7.40;;;5.00;99.90;;;;;;5013374;28;20072;-61
2022/11/26 03:55:28;;;;;;;18.25;6.10;;;5.00;99.90;;;;;;5014085;28;20041;-60
2022/11/26 03:57:54;;;;;;;22.13;8.40;;;5.00;99.90;;;;;;5014026;28;20033;-59
2022/11/26 04:00:20;;;;;;;18.33;8.23;;;5.00;99.90;;;;;;5007627;28;20439;-61
2022/11/26 04:02:45;;;;;;;18.73;7.22;;;5.00;99.90;;;;;;5005903;28;20103;-60
2022/11/26 04:05:11;;;;;;;18.77;8.23;;;5.00;99.90;;;;;;5013660;28;20033;-61
2022/11/26 04:07:36;;;;;;;23.00;8.00;;;5.00;99.90;;;;;;5013408;28;20045;-59
2022/11/26 04:10:03;;;;;;;22.80;8.23;;;5.00;99.90;;;;;;4999862;28;20042;-61
2022/11/26 04:12:28;;;;;;;21.80;8.93;;;5.00;99.90;;;;;;5013384;28;20088;-62
2022/11/26 04:14:54;;;;;;;11.63;5.63;;;5.00;99.90;;;;;;5013748;28;20030;-61
2022/11/26 04:17:19;;;;;;;22.08;8.70;;;5.00;99.90;;;;;;4982522;28;20066;-60
2022/11/26 04:19:45;;;;;;;21.55;9.45;;;4.90;99.90;;;;;;5001709;28;20042;-58
2022/11/26 04:22:11;;;;;;;16.80;8.43;;;4.90;99.90;;;;;;5010947;28;20432;-58
2022/11/26 04:24:36;;;;;;;22.58;9.95;;;4.90;99.90;;;;;;5013399;28;20037;-60
2022/11/26 04:27:02;;;;;;;17.38;6.97;;;5.00;99.90;;;;;;5013613;28;20145;-58
2022/11/26 04:29:27;;;;;;;23.95;9.88;;;5.00;99.90;;;;;;5013401;28;20124;-62
2022/11/26 04:31:53;;;;;;;21.48;9.20;;;5.00;99.90;;;;;;5000194;28;20359;-60
2022/11/26 04:34:18;;;;;;;24.13;9.52;;;5.00;99.90;;;;;;5008873;28;20041;-58
2022/11/26 04:36:44;;;;;;;25.13;9.95;;;5.00;99.90;;;;;;5013514;28;20042;-57
2022/11/26 04:39:11;;;;;;;16.95;6.78;;;5.00;99.90;;;;;;5013181;28;20034;-60
2022/11/26 04:41:37;;;;;;;18.92;7.25;;;4.90;99.90;;;;;;5013020;28;20066;-61
2022/11/26 04:44:03;;;;;;;20.75;10.38;;;5.00;99.90;;;;;;5013340;28;20038;-59
2022/11/26 04:46:28;;;;;;;21.98;9.43;;;5.00;99.90;;;;;;5012915;28;20044;-58
2022/11/26 04:48:54;;;;;;;16.73;7.13;;;5.00;99.90;;;;;;4999668;28;20088;-61
2022/11/26 04:51:20;;;;;;;21.35;9.93;;;5.00;99.90;;;;;;4998155;28;20626;-60
2022/11/26 04:53:46;;;;;;;22.25;9.25;;;5.00;99.90;;;;;;5012999;28;20050;-59
2022/11/26 04:56:12;;;;;;;21.17;9.82;;;5.00;99.90;;;;;;5012446;28;20116;-59
2022/11/26 04:58:37;;;;;;;22.80;10.10;;;5.00;99.90;;;;;;5012743;28;20445;-58
2022/11/26 05:01:03;;;;;;;22.20;7.43;;;5.00;99.90;;;;;;5012783;28;20041;-59
2022/11/26 05:03:29;;;;;;;24.98;9.90;;;5.00;99.90;;;;;;5012908;28;20314;-58
2022/11/26 05:05:54;;;;;;;20.65;9.32;;;5.00;99.90;;;;;;5012584;28;20099;-61
2022/11/26 05:08:20;;;;;;;22.38;9.00;;;5.00;99.90;;;;;;4999125;28;20479;-60
2022/11/26 05:10:45;;;;;;;21.88;9.45;;;5.00;99.90;;;;;;5012189;28;20524;-58
2022/11/26 05:13:11;;;;;;;24.92;7.78;;;5.00;99.90;;;;;;5012837;28;20089;-59
2022/11/26 05:15:37;;;;;;;24.42;10.30;;;5.00;99.90;;;;;;5012440;28;20084;-59
2022/11/26 05:18:02;;;;;;;20.92;8.13;;;5.00;99.90;;;;;;5012692;28;20033;-58
2022/11/26 05:20:28;;;;;;;23.20;9.60;;;5.00;99.90;;;;;;5009028;28;20046;-58
2022/11/26 05:22:53;;;;;;;23.83;9.15;;;5.00;99.90;;;;;;5002344;28;20092;-61
2022/11/26 05:25:19;;;;;;;19.02;9.82;;;5.00;99.90;;;;;;5012423;28;20057;-60
2022/11/26 05:27:44;;;;;;;22.27;9.82;;;5.00;99.90;;;;;;5012354;28;20124;-59
2022/11/26 05:30:12;;;;;;;21.40;7.57;;;5.00;99.90;;;;;;4999420;28;20058;-59
2022/11/26 05:32:38;;;;;;;20.98;7.28;;;4.90;99.90;;;;;;4998395;28;20053;-61
2022/11/26 05:35:04;;;;;;;24.33;11.00;;;4.80;99.90;;;;;;5012223;28;20108;-60
2022/11/26 05:37:29;;;;;;;25.05;10.93;;;4.90;99.90;;;;;;5008771;28;20039;-60
2022/11/26 05:39:55;;;;;;;22.40;10.60;;;4.80;99.90;;;;;;5001952;28;20048;-61
2022/11/26 05:42:21;;;;;;;25.13;8.57;;;4.80;99.90;;;;;;5012879;28;20052;-59
2022/11/26 05:44:46;;;;;;;20.88;8.00;;;4.80;99.90;;;;;;4994843;28;20424;-58
2022/11/26 05:47:12;;;;;;;20.80;10.90;;;4.70;99.90;;;;;;5012303;28;20098;-60
2022/11/26 05:49:37;;;;;;;18.80;8.18;;;4.70;99.90;;;;;;5012080;28;20041;-59
2022/11/26 05:52:03;;;;;;;24.23;11.27;;;4.70;99.90;;;;;;4983254;28;20130;-60
2022/11/26 05:54:28;;;;;;;17.52;8.43;;;4.70;99.90;;;;;;5008861;28;20105;-61
2022/11/26 05:56:54;;;;;;;22.10;10.82;;;4.70;99.90;;;;;;5012316;28;20376;-59
2022/11/26 05:59:19;;;;;;;20.80;11.40;;;4.60;99.90;;;;;;4998658;28;20034;-61
2022/11/26 06:01:45;;;;;;;25.02;9.38;;;4.70;99.90;;;;;;5011746;28;20049;-61
2022/11/26 06:04:11;;;;;;;22.73;11.35;;;4.60;99.90;;;;;;4975773;28;20161;-59
2022/11/26 06:06:36;;;;;;;20.38;8.30;;;4.70;99.90;;;;;;4998342;28;20129;-60
2022/11/26 06:09:03;;;;;;;19.90;10.98;;;4.60;99.90;;;;;;4987463;28;20162;-59
2022/11/26 06:11:28;;;;;;;17.70;7.78;;;4.60;99.90;;;;;;4988589;28;20437;-60
2022/11/26 06:13:54;;;;;;;23.15;11.23;;;4.60;99.90;;;;;;4989490;28;20097;-60
2022/11/26 06:16:20;;;;;;;22.88;11.18;;;4.60;99.90;;;;;;5010166;28;20065;-58
2022/11/26 06:18:45;;;;;;;21.25;8.60;;;4.70;99.90;;;;;;4980433;28;20395;-60
2022/11/26 06:21:11;;;;;;;31.38;10.93;;;4.60;99.90;;;;;;5010818;28;20398;-59
2022/11/26 06:23:37;;;;;;;21.80;8.27;;;4.60;99.90;;;;;;4979888;28;20127;-61
2022/11/26 06:26:08;;;;;;;17.67;7.90;;;4.60;99.90;;;;;;5014885;28;20042;-60
2022/11/26 06:28:33;;;;;;;26.95;11.82;;;4.50;99.90;;;;;;4998234;28;20141;-61
2022/11/26 06:30:59;;;;;;;24.50;10.80;;;4.60;99.90;;;;;;5015644;28;20195;-59
2022/11/26 06:33:24;;;;;;;25.75;11.40;;;4.60;99.90;;;;;;5010480;28;20045;-60
2022/11/26 06:35:50;;;;;;;21.60;8.13;;;4.60;99.90;;;;;;5011413;28;20033;-58
2022/11/26 06:38:15;;;;;;;21.73;10.57;;;4.60;99.90;;;;;;5014975;28;20034;-60
2022/11/26 06:40:41;;;;;;;23.35;8.25;;;4.60;99.90;;;;;;5012420;28;20038;-59
2022/11/26 06:43:07;;;;;;;26.08;12.05;;;4.60;99.90;;;;;;5014550;28;20034;-60
2022/11/26 06:45:33;;;;;;;24.52;9.40;;;4.60;99.90;;;;;;5014822;28;20046;-59
2022/11/26 06:47:59;;;;;;;25.75;11.50;;;4.50;99.90;;;;;;5012533;28;20038;-59
2022/11/26 06:50:25;;;;;;;25.30;11.20;;;4.60;99.90;;;;;;5011162;28;20042;-61
2022/11/26 06:52:54;;;;;;;22.05;8.00;;;4.60;99.90;;;;;;5005668;28;20430;-58
2022/11/26 06:55:20;;;;;;;25.88;11.50;;;4.60;99.90;;;;;;5009483;28;20097;-60
2022/11/26 06:57:50;;;;;;;19.63;10.18;;;4.60;99.90;;;;;;4996741;28;20081;-60
2022/11/26 07:00:16;;;;;;;24.75;11.30;;;4.60;99.90;;;;;;5007255;28;20064;-59
2022/11/26 07:02:42;;;;;;;19.67;8.15;;;4.60;99.90;;;;;;5014202;28;20065;-58
2022/11/26 07:05:08;;;;;;;25.77;11.27;;;4.60;99.90;;;;;;4996219;28;20070;-58
2022/11/26 07:07:36;;;;;;;23.80;10.90;;;4.70;99.90;;;;;;5006943;28;20038;-58
2022/11/26 07:10:02;;;;;;;20.27;8.15;;;4.70;99.90;;;;;;5012713;28;20042;-57
2022/11/26 07:12:28;;;;;;;24.70;11.60;;;4.60;99.90;;;;;;5005527;28;20096;-58
2022/11/26 07:14:54;;;;;;;26.17;11.35;;;4.60;99.90;;;;;;4994535;28;20038;-61
2022/11/26 07:17:19;;;;;;;21.83;8.75;;;4.60;99.90;;;;;;5014970;28;20303;-58
2022/11/26 07:19:45;;;;;;;20.70;7.47;;;4.70;99.90;;;;;;4997301;28;20044;-59
2022/11/26 07:22:10;;;;;;;24.20;11.07;;;4.70;99.90;;;;;;5015355;28;20069;-58
2022/11/26 07:24:36;;;;;;;29.27;11.88;;;4.70;99.90;;;;;;5010725;28;20046;-59
2022/11/26 07:27:01;;;;;;;22.25;8.75;;;4.70;99.90;;;;;;5005246;28;20034;-57
2022/11/26 07:29:27;;;;;;;27.52;11.32;;;4.80;99.90;;;;;;5012782;28;20046;-58
2022/11/26 07:31:53;;;;;;;28.05;10.73;;;4.70;99.90;;;;;;5006641;28;20124;-58
2022/11/26 07:34:18;;;;;;;18.95;7.72;;;4.80;99.90;;;;;;5011201;28;20042;-58
2022/11/26 07:36:44;;;;;;;26.75;11.07;;;4.70;99.90;;;;;;5014393;28;20121;-59
2022/11/26 07:39:10;;;;;;;20.05;8.63;;;4.80;99.90;;;;;;5015850;28;20079;-60
2022/11/26 07:41:36;;;;;;;27.90;11.70;;;4.80;99.90;;;;;;5010047;28;20041;-60
2022/11/26 07:44:02;;;;;;;23.40;11.82;;;4.80;99.90;;;;;;5009037;28;20048;-60
2022/11/26 07:46:28;;;;;;;26.20;12.13;;;4.80;99.90;;;;;;5013780;28;20125;-60
2022/11/26 07:48:55;;;;;;;28.40;11.93;;;4.90;99.90;;;;;;5008491;28;20100;-60
2022/11/26 07:51:26;;;;;;;21.80;9.68;;;4.90;99.90;;;;;;4995839;28;20386;-60
2022/11/26 07:53:53;;;;;;;20.63;8.93;;;4.90;99.90;;;;;;5012115;28;20053;-59
2022/11/26 07:56:19;;;;;;;23.65;11.45;;;4.90;99.90;;;;;;5006171;28;20045;-59
2022/11/26 07:58:45;;;;;;;24.00;10.95;;;4.90;99.90;;;;;;5009378;28;20038;-61
2022/11/26 08:01:16;;;;;;;25.10;9.38;;;5.00;99.90;;;;;;4992871;28;20092;-61
2022/11/26 08:03:45;;;;;;;26.67;10.20;;;5.00;99.90;;;;;;5014242;28;20444;-62
2022/11/26 08:06:13;;;;;;;31.38;11.57;;;4.90;99.90;;;;;;5002652;28;20073;-58
2022/11/26 08:08:39;;;;;;;31.05;15.88;;;5.00;99.90;;;;;;4993187;28;20478;-60
2022/11/26 08:11:13;;;;;;;33.63;15.00;;;5.00;99.90;;;;;;4991312;28;20073;-61
2022/11/26 08:13:39;;;;;;;28.90;11.40;;;5.10;99.90;;;;;;4995469;28;20103;-61
2022/11/26 08:16:04;;;;;;;24.55;13.10;;;5.20;99.90;;;;;;4960275;28;20038;-61
2022/11/26 08:18:30;;;;;;;29.65;13.50;;;5.20;99.90;;;;;;5007258;28;20476;-60
2022/11/26 08:20:57;;;;;;;25.80;9.73;;;5.20;99.90;;;;;;5013176;28;20041;-58
2022/11/26 08:23:23;;;;;;;22.42;10.15;;;5.30;99.90;;;;;;5013584;28;20045;-61
2022/11/26 08:25:50;;;;;;;22.88;11.13;;;5.20;99.90;;;;;;5000536;28;20121;-61
2022/11/26 08:28:15;;;;;;;18.20;10.73;;;5.30;99.90;;;;;;4994296;28;20129;-58
2022/11/26 08:30:41;;;;;;;23.40;12.35;;;5.70;99.90;;;;;;5021698;28;20121;-60
2022/11/26 08:33:07;;;;;;;24.02;11.05;;;5.90;99.90;;;;;;4976871;28;20054;-58
2022/11/26 08:35:34;;;;;;;23.08;8.55;;;6.10;99.90;;;;;;4991721;28;20037;-58
2022/11/26 08:38:00;;;;;;;26.20;9.70;;;6.40;99.90;;;;;;4996313;28;20037;-59
2022/11/26 08:40:26;;;;;;;23.38;9.43;;;6.50;99.90;;;;;;5013324;28;20352;-59
2022/11/26 08:42:51;;;;;;;21.50;9.77;;;6.60;99.90;;;;;;5005459;28;20045;-59
2022/11/26 08:45:17;;;;;;;26.38;12.02;;;6.80;99.90;;;;;;5008328;28;20083;-58
2022/11/26 08:47:42;;;;;;;24.67;11.93;;;6.90;99.90;;;;;;4987610;28;20455;-59
2022/11/26 08:50:08;;;;;;;24.80;10.02;;;7.00;99.90;;;;;;4995211;28;20081;-60
2022/11/26 08:52:34;;;;;;;22.25;9.77;;;7.00;99.90;;;;;;5003790;28;20057;-60
2022/11/26 08:55:00;;;;;;;23.20;9.50;;;7.10;99.90;;;;;;5015368;28;20041;-59
2022/11/26 08:57:25;;;;;;;20.30;9.60;;;7.20;99.90;;;;;;5004285;28;20239;-62
2022/11/26 08:59:53;;;;;;;24.73;9.18;;;7.30;99.90;;;;;;4986611;28;20033;-61
2022/11/26 09:02:19;;;;;;;20.67;9.63;;;7.30;99.90;;;;;;5013249;28;20426;-59
2022/11/26 09:04:44;;;;;;;20.73;9.88;;;7.30;99.90;;;;;;5012749;28;20072;-59
2022/11/26 09:07:10;;;;;;;19.80;10.50;;;7.40;99.90;;;;;;4993174;28;20042;-59
2022/11/26 09:09:36;;;;;;;21.55;10.45;;;7.30;99.90;;;;;;4975513;28;20057;-59
2022/11/26 09:12:01;;;;;;;22.27;10.52;;;7.40;99.90;;;;;;5010680;28;20037;-62
2022/11/26 09:14:33;;;;;;;20.35;9.88;;;7.50;99.90;;;;;;5012464;28;20104;-62
2022/11/26 09:16:59;;;;;;;22.60;9.88;;;7.40;99.90;;;;;;5009179;28;20048;-59
2022/11/26 09:19:26;;;;;;;22.88;9.40;;;7.60;99.90;;;;;;5012505;28;20049;-61
2022/11/26 09:21:51;;;;;;;19.35;10.60;;;7.60;99.90;;;;;;5011730;28;20037;-57
2022/11/26 09:24:17;;;;;;;21.00;10.35;;;7.60;99.90;;;;;;5005440;28;20096;-60
2022/11/26 09:26:43;;;;;;;22.88;12.32;;;7.70;99.90;;;;;;4999904;28;20181;-61
2022/11/26 09:29:14;;;;;;;23.02;11.43;;;7.80;99.90;;;;;;5011114;28;20129;-59
2022/11/26 09:31:39;;;;;;;19.92;11.38;;;7.70;99.90;;;;;;4993075;28;20042;-62
2022/11/26 09:34:05;;;;;;;25.80;10.73;;;7.70;99.90;;;;;;5011146;28;20513;-62
2022/11/26 09:36:31;;;;;;;23.90;10.85;;;7.50;99.90;;;;;;5008480;28;20029;-61
2022/11/26 09:38:58;;;;;;;25.35;11.38;;;7.60;99.90;;;;;;4990211;28;20175;-60
2022/11/26 09:41:26;;;;;;;23.38;9.77;;;7.60;99.90;;;;;;5006166;28;20167;-60
2022/11/26 09:44:05;;;;;;;23.25;12.25;;;7.70;99.90;;;;;;5005889;28;20068;-61
2022/11/26 09:46:39;;;;;;;23.30;11.95;;;7.70;99.90;;;;;;5008653;28;20038;-60
2022/11/26 09:49:09;;;;;;;27.90;12.40;;;7.60;99.90;;;;;;4993877;28;20081;-60
2022/11/26 09:51:35;;;;;;;27.35;13.45;;;7.60;99.90;;;;;;5011276;28;20356;-62
2022/11/26 09:54:03;;;;;;;22.48;10.15;;;7.60;99.90;;;;;;5011750;28;20092;-61
2022/11/26 09:56:31;;;;;;;23.83;11.65;;;7.70;99.90;;;;;;5006142;28;20033;-61
2022/11/26 09:59:01;;;;;;;23.80;11.18;;;7.60;99.90;;;;;;5014887;28;20074;-62
2022/11/26 10:01:31;;;;;;;24.20;12.68;;;7.60;99.90;;;;;;5011982;28;20054;-61
2022/11/26 10:03:58;;;;;;;21.58;10.25;;;7.70;99.90;;;;;;5014941;28;20022;-61
2022/11/26 10:06:48;;;;;;;21.90;10.27;;;7.70;99.90;;;;;;5014851;28;20520;-61
2022/11/26 10:09:32;;;;;;;21.25;11.75;;;7.80;99.90;;;;;;5014605;28;20057;-60
2022/11/26 10:12:19;;;;;;;37.10;13.90;;;7.90;99.90;;;;;;5014880;28;20049;-61
2022/11/26 10:14:59;;;;;;;19.85;10.98;;;7.90;99.90;;;;;;5015271;28;20091;-62
2022/11/26 10:17:34;;;;;;;29.45;13.25;;;8.00;99.90;;;;;;5007532;28;20129;-62
2022/11/26 10:20:37;;;;;;;24.63;13.13;;;7.90;99.90;;;;;;5015007;28;20457;-59
2022/11/26 10:23:30;;;;;;;19.52;11.30;;;7.90;99.90;;;;;;5003432;28;20054;-60
2022/11/26 10:26:22;;;;;;;23.30;11.02;;;7.70;99.90;;;;;;5009372;28;20038;-61
2022/11/26 10:28:51;;;;;;;26.00;12.35;;;7.70;99.90;;;;;;5009822;28;20046;-64
2022/11/26 10:31:31;;;;;;;28.10;13.52;;;7.70;99.90;;;;;;4990392;28;20099;-60
2022/11/26 10:34:00;;;;;;;25.20;12.57;;;7.70;99.90;;;;;;5012558;28;20042;-61
2022/11/26 10:36:38;;;;;;;25.70;14.00;;;7.70;99.90;;;;;;5015463;28;20034;-60
2022/11/26 10:39:05;;;;;;;26.63;13.88;;;7.70;99.90;;;;;;5013962;28;20033;-61
2022/11/26 10:41:34;;;;;;;26.90;14.05;;;7.70;99.90;;;;;;5014244;28;20045;-61
2022/11/26 10:44:28;;;;;;;31.60;13.02;;;7.70;99.90;;;;;;5015223;28;20077;-61
2022/11/26 10:46:54;;;;;;;28.40;14.85;;;7.70;99.90;;;;;;4995888;28;20083;-61
2022/11/26 10:49:28;;;;;;;25.50;13.70;;;7.70;99.90;;;;;;5006729;28;20391;-62
2022/11/26 10:51:59;;;;;;;28.60;15.07;;;7.80;99.90;;;;;;5004754;28;20347;-61
2022/11/26 10:54:31;;;;;;;28.67;15.18;;;7.80;99.90;;;;;;4976460;28;20134;-61
2022/11/26 10:57:10;;;;;;;29.65;14.52;;;7.80;99.90;;;;;;4991481;28;20038;-61
2022/11/26 10:59:50;;;;;;;31.15;16.02;;;7.80;99.90;;;;;;4994045;28;20148;-59
2022/11/26 11:02:19;;;;;;;28.70;15.73;;;7.90;99.90;;;;;;4972712;28;20050;-60
2022/11/26 11:04:49;;;;;;;28.60;15.55;;;7.80;99.90;;;;;;5006692;28;20049;-59
2022/11/26 11:07:36;;;;;;;30.63;13.20;;;7.90;99.90;;;;;;4979322;28;20054;-59
2022/11/26 11:10:08;;;;;;;29.75;16.00;;;7.90;99.90;;;;;;4988288;28;20054;-59
2022/11/26 11:12:38;;;;;;;28.67;15.98;;;8.00;99.90;;;;;;4995011;28;20332;-61
2022/11/26 11:15:24;;;;;;;27.48;14.73;;;8.10;99.90;;;;;;4994838;28;20347;-59
2022/11/26 11:18:11;;;;;;;32.08;15.15;;;8.10;99.90;;;;;;4977788;28;20093;-59
2022/11/26 11:20:42;;;;;;;24.85;13.18;;;8.20;99.90;;;;;;4993923;28;20120;-60
2022/11/26 11:23:10;;;;;;;28.85;14.52;;;8.10;99.90;;;;;;4993109;28;20690;-58
2022/11/26 11:25:40;;;;;;;28.85;14.00;;;8.30;99.90;;;;;;4985644;28;20391;-60
2022/11/26 11:28:11;;;;;;;33.47;15.07;;;8.30;99.90;;;;;;4994156;28;20034;-61
2022/11/26 11:30:39;;;;;;;26.90;15.93;;;8.30;99.90;;;;;;4993022;28;20042;-58
2022/11/26 11:33:13;;;;;;;28.15;15.48;;;8.30;99.90;;;;;;4993029;28;20038;-58
2022/11/26 11:35:39;;;;;;;28.48;14.10;;;8.40;99.90;;;;;;4975866;28;20046;-59
2022/11/26 11:38:21;;;;;;;26.90;12.60;;;8.40;99.90;;;;;;4975490;28;20026;-58
2022/11/26 11:40:48;;;;;;;28.13;15.00;;;8.40;99.90;;;;;;4975363;28;20046;-61
2022/11/26 11:43:16;;;;;;;29.05;15.20;;;8.40;99.90;;;;;;4993059;28;20489;-58
2022/11/26 11:45:53;;;;;;;27.55;13.95;;;8.50;99.90;;;;;;4976444;28;20104;-60
2022/11/26 11:48:36;;;;;;;28.58;14.82;;;8.50;99.90;;;;;;4994763;28;20050;-59
2022/11/26 11:51:52;;;;;;;30.35;14.15;;;8.60;99.90;;;;;;4994730;28;20158;-58
2022/11/26 11:54:33;;;;;;;28.80;13.93;;;8.50;99.90;;;;;;4994613;28;20137;-58
2022/11/26 11:57:18;;;;;;;24.50;12.90;;;8.50;99.90;;;;;;4993957;28;20046;-57
2022/11/26 12:00:12;;;;;;;28.92;13.48;;;8.50;99.90;;;;;;4998657;28;20088;-58
2022/11/26 12:03:02;;;;;;;32.80;14.57;;;8.50;99.90;;;;;;4996653;28;20065;-58
2022/11/26 12:06:06;;;;;;;25.10;14.38;;;8.60;99.90;;;;;;4997644;28;20100;-59
2022/11/26 12:09:01;;;;;;;25.15;13.50;;;8.60;99.90;;;;;;4997421;28;20053;-58
2022/11/26 12:11:54;;;;;;;24.45;13.75;;;8.60;99.90;;;;;;4951357;28;20499;-59
2022/11/26 12:14:42;;;;;;;28.63;14.73;;;8.60;99.90;;;;;;4944398;28;20460;-58
2022/11/26 12:17:32;;;;;;;29.88;12.20;;;8.60;99.90;;;;;;4947457;29;20466;-62
2022/11/26 12:20:20;;;;;;;33.20;14.35;;;8.70;99.90;;;;;;4952233;28;20059;-61
2022/11/26 12:22:57;;;;;;;26.85;14.43;;;8.80;99.90;;;;;;4948385;29;20372;-58
2022/11/26 12:25:36;;;;;;;30.48;14.23;;;8.80;99.90;;;;;;4953354;29;20512;-59
2022/11/26 12:28:24;;;;;;;26.58;13.13;;;8.90;99.90;;;;;;4953328;29;20051;-59
2022/11/26 12:31:01;;;;;;;29.98;13.80;;;8.90;99.90;;;;;;4952854;28;20151;-58
2022/11/26 12:33:58;;;;;;;25.60;14.10;;;9.00;99.90;;;;;;4957432;28;20409;-58
2022/11/26 12:36:34;;;;;;;27.30;14.48;;;9.00;99.90;;;;;;4953060;29;20070;-61
2022/11/26 12:39:33;;;;;;;26.92;13.10;;;9.00;99.90;;;;;;4956787;28;20047;-58
2022/11/26 12:42:05;;;;;;;24.92;13.02;;;9.00;99.90;;;;;;4930401;28;20145;-58
2022/11/26 12:44:40;;;;;;;24.30;13.27;;;9.10;99.90;;;;;;4997806;28;20046;-59
2022/11/26 12:47:05;;;;;;;;;;;9.10;99.90;;;;;;4994119;28;20103;-57
2022/11/26 12:49:42;;;;;;;27.38;13.27;;;9.00;99.90;;;;;;4989834;28;19937;-58
2022/11/26 12:52:41;;;;;;;27.67;13.48;;;9.10;99.90;;;;;;4993391;28;20148;-58
2022/11/26 12:55:17;;;;;;;23.65;12.60;;;9.20;99.90;;;;;;4991860;28;20426;-59
2022/11/26 12:58:04;;;;;;;26.52;12.35;;;9.20;99.90;;;;;;4993771;28;20427;-60
2022/11/26 13:00:35;;;;;;;30.80;13.63;;;9.20;99.90;;;;;;4993138;28;20378;-58